Time;durP1;ratioP1;P1;durP2;ratioP2;P2;SDS_P1;SDS_P2;PMS_P1;PMS_P2;Temp;Humidity;BMP_temperature;BMP_pressure;BME280_temperature;BME280_humidity;BME280_pressure;Samples;Min_cycle;Max_cycle;Signal;HPM_P1;HPM_P2
2023/01/21 00:00:49;;;;;;;71.22;28.60;;;;;;;-146.25;100.00;52540.53;2071239;28;41589;-72
2023/01/21 00:01:50;;;;;;;70.72;29.45;;;;;;;-146.25;100.00;52540.53;2078834;28;40212;-72
2023/01/21 00:02:52;;;;;;;68.90;28.30;;;;;;;-146.25;100.00;52497.97;2079575;28;34824;-72
2023/01/21 00:03:54;;;;;;;79.68;30.65;;;;;;;-146.25;100.00;52491.88;2080298;28;20148;-72
2023/01/21 00:04:55;;;;;;;78.50;30.92;;;;;;;-146.25;100.00;52516.22;2079991;28;41079;-74
2023/01/21 00:06:00;;;;;;;80.72;31.17;;;;;;;-146.25;100.00;52522.28;2079204;28;36165;-71
2023/01/21 00:07:01;;;;;;;82.93;31.23;;;;;;;-146.25;100.00;52514.19;2079193;28;38106;-73
2023/01/21 00:08:03;;;;;;;78.38;32.70;;;;;;;-146.25;100.00;52528.38;2079676;28;38055;-71
2023/01/21 00:09:07;;;;;;;78.38;32.85;;;;;;;-146.25;100.00;52534.47;2079252;28;44028;-72
2023/01/21 00:10:09;;;;;;;74.65;31.10;;;;;;;-146.25;100.00;52479.72;2079576;28;36076;-71
2023/01/21 00:11:15;;;;;;;86.63;33.72;;;;;;;-146.25;100.00;52518.25;2079300;28;41352;-71
2023/01/21 00:12:16;;;;;;;87.55;34.10;;;;;;;-146.25;100.00;52522.28;2070092;28;39410;-71
2023/01/21 00:13:18;;;;;;;91.82;33.05;;;;;;;-146.25;100.00;52510.13;2070840;28;40203;-72
2023/01/21 00:14:20;;;;;;;85.93;34.65;;;;;;;-146.25;100.00;52508.09;2079371;28;39495;-71
2023/01/21 00:15:21;;;;;;;84.40;33.67;;;;;;;-146.25;100.00;52510.13;2080038;28;27273;-71
2023/01/21 00:16:23;;;;;;;97.05;34.50;;;;;;;-146.25;100.00;52508.09;2070419;28;43347;-72
2023/01/21 00:17:25;;;;;;;93.20;35.83;;;;;;;-146.25;100.00;52489.84;2071565;28;20045;-72
2023/01/21 00:18:26;;;;;;;81.25;33.38;;;;;;;-146.25;100.00;52510.13;2079118;28;40543;-72
2023/01/21 00:19:30;;;;;;;84.90;33.40;;;;;;;-146.25;100.00;52487.81;2079840;28;20046;-72
2023/01/21 00:20:32;;;;;;;92.03;33.90;;;;;;;-146.25;100.00;52497.97;2079184;28;36446;-72
2023/01/21 00:21:36;;;;;;;91.80;33.03;;;;;;;-146.25;100.00;52500.00;2080534;28;20143;-72
2023/01/21 00:22:38;;;;;;;95.00;36.47;;;;;;;-146.25;100.00;52483.78;2079987;28;20150;-72
2023/01/21 00:23:40;;;;;;;86.68;32.97;;;;;;;-146.25;100.00;52522.28;2079320;28;40438;-72
2023/01/21 00:24:42;;;;;;;88.07;35.03;;;;;;;-146.25;100.00;52493.91;2070745;28;38556;-72
2023/01/21 00:25:45;;;;;;;76.05;30.88;;;;;;;-146.25;100.00;52502.03;2071453;28;20045;-72
2023/01/21 00:26:47;;;;;;;80.97;33.33;;;;;;;-146.25;100.00;52506.06;2079261;28;41902;-72
2023/01/21 00:27:49;;;;;;;87.20;33.25;;;;;;;-146.25;100.00;52526.34;2070510;28;35930;-72
2023/01/21 00:28:51;;;;;;;95.32;35.35;;;;;;;-146.25;100.00;52504.03;2071023;28;23963;-72
2023/01/21 00:29:52;;;;;;;83.95;33.42;;;;;;;-146.25;100.00;52528.38;2070740;28;39674;-71
2023/01/21 00:31:03;;;;;;;80.85;33.28;;;;;;;-146.25;100.00;52477.69;2063048;28;20956;-72
2023/01/21 00:32:07;;;;;;;82.43;34.13;;;;;;;-146.25;100.00;52522.28;2071888;28;38237;-72
2023/01/21 00:33:09;;;;;;;83.82;33.95;;;;;;;-146.25;100.00;52536.50;2078773;28;35767;-72
2023/01/21 00:34:11;;;;;;;78.80;30.15;;;;;;;-146.25;100.00;52483.78;2079607;28;37571;-72
2023/01/21 00:35:12;;;;;;;80.93;33.33;;;;;;;-146.25;100.00;52495.94;2079460;28;39920;-72
2023/01/21 00:36:17;;;;;;;86.57;33.85;;;;;;;-146.25;100.00;52497.97;2080011;28;20918;-72
2023/01/21 00:37:19;;;;;;;91.22;35.30;;;;;;;-146.25;100.00;52530.41;2078556;28;42131;-72
2023/01/21 00:38:20;;;;;;;80.68;32.55;;;;;;;-146.25;100.00;52514.19;2070423;28;36812;-72
2023/01/21 00:39:22;;;;;;;86.18;33.08;;;;;;;-146.25;100.00;52508.09;2070404;28;38049;-72
2023/01/21 00:40:24;;;;;;;81.80;31.63;;;;;;;-146.25;100.00;52479.72;2079230;28;39910;-72
2023/01/21 00:41:26;;;;;;;87.57;34.38;;;;;;;-146.25;100.00;52463.50;2078760;28;39560;-72
2023/01/21 00:42:28;;;;;;;77.00;31.25;;;;;;;-146.25;100.00;52518.25;2078461;28;40264;-72
2023/01/21 00:43:30;;;;;;;83.38;32.47;;;;;;;-146.25;100.00;52518.25;2079085;28;43674;-72
2023/01/21 00:44:32;;;;;;;82.20;32.58;;;;;;;-146.25;100.00;52497.97;2070406;28;34975;-72
2023/01/21 00:45:34;;;;;;;86.15;34.38;;;;;;;-146.25;100.00;52500.00;2062453;28;39499;-72
2023/01/21 00:46:35;;;;;;;88.97;32.88;;;;;;;-146.25;100.00;52534.47;2070548;28;40722;-72
2023/01/21 00:47:37;;;;;;;86.63;32.35;;;;;;;-146.25;100.00;52477.69;2078991;28;37539;-72
2023/01/21 00:48:39;;;;;;;81.47;31.08;;;;;;;-146.25;100.00;52512.16;2079379;28;38888;-72
2023/01/21 00:49:41;;;;;;;83.72;32.55;;;;;;;-146.25;100.00;52481.75;2079319;28;28959;-72
2023/01/21 00:50:45;;;;;;;73.35;31.00;;;;;;;-146.25;100.00;52514.19;2078178;28;41317;-72
2023/01/21 00:51:48;;;;;;;75.53;29.90;;;;;;;-146.25;100.00;52512.16;2079192;28;37669;-72
2023/01/21 00:52:49;;;;;;;82.40;31.40;;;;;;;-146.25;100.00;52473.63;2079250;28;38721;-72
2023/01/21 00:53:53;;;;;;;77.70;30.63;;;;;;;-146.25;100.00;52477.69;2078918;28;36792;-72
2023/01/21 00:54:55;;;;;;;80.20;31.00;;;;;;;-146.25;100.00;52508.09;2079246;28;39376;-72
2023/01/21 00:56:02;;;;;;;74.45;29.88;;;;;;;-146.25;100.00;52528.38;2079325;28;36188;-72
2023/01/21 00:57:05;;;;;;;71.57;27.02;;;;;;;-146.25;100.00;52497.97;2078711;28;36385;-71
2023/01/21 00:58:07;;;;;;;68.57;28.38;;;;;;;-146.25;100.00;52518.25;2070430;28;37096;-72
2023/01/21 00:59:09;;;;;;;82.80;31.40;;;;;;;-146.25;100.00;52514.19;2071760;28;20046;-72
2023/01/21 01:00:12;;;;;;;74.18;28.92;;;;;;;-146.25;100.00;52504.03;2079782;28;39748;-72
2023/01/21 01:01:20;;;;;;;66.43;27.23;;;;;;;-146.25;100.00;52497.97;2071902;28;38644;-72
2023/01/21 01:02:21;;;;;;;72.00;29.10;;;;;;;-146.25;100.00;52502.03;2073441;28;28142;-72
2023/01/21 01:03:23;;;;;;;71.28;28.85;;;;;;;-146.25;100.00;52489.84;2080186;28;37351;-72
2023/01/21 01:04:25;;;;;;;67.95;28.48;;;;;;;-146.25;100.00;52477.69;2063599;28;38573;-72
2023/01/21 01:05:26;;;;;;;69.18;29.52;;;;;;;-146.25;100.00;52516.22;2071949;28;38381;-71
2023/01/21 01:06:28;;;;;;;70.03;28.00;;;;;;;-146.25;100.00;52514.19;2088157;28;40699;-72
2023/01/21 01:07:34;;;;;;;67.03;28.27;;;;;;;-146.25;100.00;52489.84;2080556;28;37801;-72
2023/01/21 01:08:37;;;;;;;57.83;26.42;;;;;;;-146.25;100.00;52510.13;2080602;28;40727;-71
2023/01/21 01:09:38;;;;;;;65.32;27.33;;;;;;;-146.25;100.00;52477.69;2081462;28;20042;-72
2023/01/21 01:10:40;;;;;;;65.22;28.60;;;;;;;-146.25;100.00;52493.91;2080558;28;43375;-72
2023/01/21 01:11:42;;;;;;;69.07;30.13;;;;;;;-146.25;100.00;52489.84;2080791;28;39324;-72
2023/01/21 01:12:44;;;;;;;69.63;28.65;;;;;;;-146.25;100.00;52497.97;2080664;28;36983;-72
2023/01/21 01:13:45;;;;;;;64.20;26.52;;;;;;;-146.25;100.00;52493.91;2080488;28;41171;-72
2023/01/21 01:14:47;;;;;;;63.35;27.75;;;;;;;-146.25;100.00;52526.34;2080153;28;39973;-72
2023/01/21 01:15:51;;;;;;;70.32;29.00;;;;;;;-146.25;100.00;52534.47;2081467;28;20132;-71
2023/01/21 01:16:53;;;;;;;62.85;27.63;;;;;;;-146.25;100.00;52485.81;2079702;28;39609;-72
2023/01/21 01:17:56;;;;;;;59.90;26.88;;;;;;;-146.25;100.00;52502.03;2080062;28;37873;-72
2023/01/21 01:18:58;;;;;;;60.15;26.85;;;;;;;-146.25;100.00;52514.19;2080773;28;38121;-72
2023/01/21 01:20:00;;;;;;;62.90;26.23;;;;;;;-146.25;100.00;52504.03;2080276;28;41589;-72
2023/01/21 01:21:03;;;;;;;67.80;28.23;;;;;;;-146.25;100.00;52508.09;2071314;28;40960;-72
2023/01/21 01:22:05;;;;;;;61.92;27.15;;;;;;;-146.25;100.00;52471.59;2072598;28;20942;-71
2023/01/21 01:23:07;;;;;;;59.83;26.20;;;;;;;-146.25;100.00;52522.28;2080296;28;38886;-71
2023/01/21 01:24:08;;;;;;;62.30;27.52;;;;;;;-146.25;100.00;52516.22;2071755;28;38123;-72
2023/01/21 01:25:10;;;;;;;67.47;28.73;;;;;;;-146.25;100.00;52518.25;2071757;28;38635;-72
2023/01/21 01:26:15;;;;;;;66.43;28.15;;;;;;;-146.25;100.00;52497.97;2080307;28;41709;-71
2023/01/21 01:27:17;;;;;;;66.53;28.58;;;;;;;-146.25;100.00;52495.94;2079556;28;38803;-72
2023/01/21 01:28:18;;;;;;;70.38;30.05;;;;;;;-146.25;100.00;52475.66;2079926;28;39629;-71
2023/01/21 01:29:20;;;;;;;62.75;28.00;;;;;;;-146.25;100.00;52514.19;2080329;28;41226;-71
2023/01/21 01:30:22;;;;;;;70.90;28.60;;;;;;;-146.25;100.00;52526.34;2080714;28;22546;-73
2023/01/21 01:31:23;;;;;;;58.53;26.50;;;;;;;-146.25;100.00;52497.97;2071731;28;37436;-71
2023/01/21 01:32:25;;;;;;;59.30;27.95;;;;;;;-146.25;100.00;52520.28;2071905;28;37240;-72
2023/01/21 01:33:27;;;;;;;66.97;29.10;;;;;;;-146.25;100.00;52473.63;2080790;28;40831;-72
2023/01/21 01:34:29;;;;;;;61.53;26.27;;;;;;;-146.25;100.00;52520.28;2080460;28;38025;-72
2023/01/21 01:35:31;;;;;;;59.75;26.35;;;;;;;-146.25;100.00;52552.72;2080583;28;36096;-72
2023/01/21 01:36:33;;;;;;;61.25;25.92;;;;;;;-146.25;100.00;52483.78;2080423;28;41967;-72
2023/01/21 01:37:35;;;;;;;63.50;26.63;;;;;;;-146.25;100.00;52469.56;2080078;28;31733;-72
2023/01/21 01:38:36;;;;;;;69.53;28.92;;;;;;;-146.25;100.00;52524.31;2079974;28;40240;-71
2023/01/21 01:39:38;;;;;;;63.17;28.40;;;;;;;-146.25;100.00;52534.47;2080107;28;40241;-71
2023/01/21 01:40:41;;;;;;;64.63;26.15;;;;;;;-146.25;100.00;52514.19;2080474;28;36136;-72
2023/01/21 01:41:42;;;;;;;60.00;26.50;;;;;;;-146.25;100.00;52530.41;2071875;28;22334;-71
2023/01/21 01:42:44;;;;;;;62.30;26.60;;;;;;;-146.25;100.00;52489.84;2071812;28;37307;-71
2023/01/21 01:43:53;;;;;;;63.67;28.58;;;;;;;-146.25;100.00;52465.53;2080628;28;41461;-71
2023/01/21 01:45:24;;;;;;;69.22;29.60;;;;;;;-146.25;100.00;52514.19;2080463;28;40221;-71
2023/01/21 01:46:29;;;;;;;66.10;28.77;;;;;;;-146.25;100.00;52493.91;2076637;28;36506;-72
2023/01/21 01:47:44;;;;;;;59.55;26.40;;;;;;;-146.25;100.00;52544.59;2079638;28;37236;-71
2023/01/21 01:49:14;;;;;;;58.90;25.90;;;;;;;-146.25;100.00;52508.09;2074311;28;21124;-71
2023/01/21 01:50:18;;;;;;;;;;;;;;;-146.25;100.00;52479.72;2071611;28;39797;-71
2023/01/21 01:51:38;;;;;;;50.10;22.98;;;;;;;-146.25;100.00;52493.91;2080583;28;19917;-72
2023/01/21 01:52:41;;;;;;;57.78;24.30;;;;;;;-146.25;100.00;52471.59;2079768;28;41312;-71
2023/01/21 01:53:46;;;;;;;56.88;25.60;;;;;;;-146.25;100.00;52497.97;2071297;28;39564;-71
2023/01/21 01:54:53;;;;;;;47.60;23.83;;;;;;;-146.25;100.00;52524.31;2072450;28;39146;-72
2023/01/21 01:55:56;;;;;;;51.30;23.92;;;;;;;-146.25;100.00;52489.84;2071621;28;39236;-71
2023/01/21 01:57:04;;;;;;;45.75;21.70;;;;;;;-146.25;100.00;52510.13;2072091;28;37880;-70
2023/01/21 01:58:13;;;;;;;48.65;23.65;;;;;;;-146.25;100.00;52542.56;2063810;28;37503;-72
2023/01/21 01:59:16;;;;;;;58.28;25.63;;;;;;;-146.25;100.00;52532.44;2074518;28;41534;-72
2023/01/21 02:00:19;;;;;;;55.17;24.50;;;;;;;-146.25;100.00;52514.19;2079221;28;38474;-71
2023/01/21 02:01:21;;;;;;;44.13;20.40;;;;;;;-146.25;100.00;52532.44;2071224;28;40420;-72
2023/01/21 02:02:25;;;;;;;49.50;22.80;;;;;;;-146.25;100.00;52485.81;2071610;28;38614;-72
2023/01/21 02:03:45;;;;;;;56.63;26.02;;;;;;;-146.25;100.00;52508.09;2072162;28;38289;-71
2023/01/21 02:04:55;;;;;;;54.55;24.10;;;;;;;-146.25;100.00;52495.94;2071530;28;41564;-72
2023/01/21 02:05:57;;;;;;;53.47;24.48;;;;;;;-146.25;100.00;52522.28;2072551;28;31777;-72
2023/01/21 02:07:02;;;;;;;50.20;23.40;;;;;;;-146.25;100.00;52481.75;2080438;28;20164;-72
2023/01/21 02:08:05;;;;;;;48.88;22.77;;;;;;;-146.25;100.00;52500.00;2071655;28;33408;-72
2023/01/21 02:09:07;;;;;;;52.97;24.40;;;;;;;-146.25;100.00;52493.91;2071870;28;37186;-71
2023/01/21 02:10:12;;;;;;;53.30;24.73;;;;;;;-146.25;100.00;52528.38;2080338;28;39164;-72
2023/01/21 02:11:18;;;;;;;55.00;24.08;;;;;;;-146.25;100.00;52510.13;2063159;28;43340;-72
2023/01/21 02:12:21;;;;;;;55.65;24.50;;;;;;;-146.25;100.00;52522.28;2064212;28;40980;-72
2023/01/21 02:13:28;;;;;;;51.85;24.88;;;;;;;-146.25;100.00;52473.63;2080093;28;38492;-72
2023/01/21 02:14:35;;;;;;;53.65;23.98;;;;;;;-146.25;100.00;52522.28;2071545;28;38774;-72
2023/01/21 02:15:52;;;;;;;46.38;21.27;;;;;;;-146.25;100.00;52467.56;2073478;28;20873;-72
2023/01/21 02:17:30;;;;;;;53.40;23.35;;;;;;;-146.25;100.00;52508.09;2072054;28;20030;-72
2023/01/21 02:19:18;;;;;;;43.58;21.23;;;;;;;-146.25;100.00;52493.91;2077751;28;38565;-72
2023/01/21 02:20:54;;;;;;;40.75;19.23;;;;;;;-146.25;100.00;52491.88;2061192;28;38773;-72
2023/01/21 02:22:16;;;;;;;51.28;23.48;;;;;;;-146.25;100.00;52510.13;2080215;28;39626;-71
2023/01/21 02:24:16;;;;;;;40.70;20.08;;;;;;;-146.25;100.00;52516.22;2071305;28;36932;-72
2023/01/21 02:25:59;;;;;;;52.78;22.30;;;;;;;-146.25;100.00;52502.03;2080120;28;27683;-72
2023/01/21 02:27:30;;;;;;;46.10;20.92;;;;;;;-146.25;100.00;52514.19;2047579;28;39449;-71
2023/01/21 02:29:15;;;;;;;45.13;20.40;;;;;;;-146.25;100.00;52506.06;2072390;28;28143;-71
2023/01/21 02:30:40;;;;;;;44.58;20.30;;;;;;;-146.25;100.00;52449.31;2072073;28;40190;-71
2023/01/21 02:32:19;;;;;;;44.90;21.60;;;;;;;-146.25;100.00;52520.28;2071848;28;40487;-73
2023/01/21 02:33:59;;;;;;;54.55;23.88;;;;;;;-146.25;100.00;52530.41;2071062;28;40495;-73
2023/01/21 02:35:10;;;;;;;;;;;;;;;-146.25;100.00;52526.34;2039662;29;21479;-72
2023/01/21 02:36:36;;;;;;;46.72;20.70;;;;;;;-146.25;100.00;52489.84;2045149;28;44409;-73
2023/01/21 02:38:10;;;;;;;47.40;21.52;;;;;;;-146.25;100.00;52493.91;2071766;28;37477;-72
2023/01/21 02:39:38;;;;;;;43.67;20.20;;;;;;;-146.25;100.00;52487.81;2071070;28;40731;-72
2023/01/21 02:41:37;;;;;;;49.85;23.33;;;;;;;-146.25;100.00;52516.22;2071322;28;40081;-71
2023/01/21 02:42:50;;;;;;;49.20;21.63;;;;;;;-146.25;100.00;52510.13;2054451;28;40515;-72
2023/01/21 02:44:57;;;;;;;54.72;23.45;;;;;;;-146.25;100.00;52526.34;2063065;28;40742;-72
2023/01/21 02:46:08;;;;;;;54.45;23.40;;;;;;;-146.25;100.00;52493.91;2054610;28;38912;-71
2023/01/21 02:47:33;;;;;;;50.33;23.42;;;;;;;-146.25;100.00;52520.28;2054705;28;43429;-71
2023/01/21 02:48:52;;;;;;;61.85;25.63;;;;;;;-146.25;100.00;52514.19;2061691;28;20055;-72
2023/01/21 02:50:29;;;;;;;58.63;25.35;;;;;;;-146.25;100.00;52506.06;2059092;28;42686;-71
2023/01/21 02:51:30;;;;;;;47.22;20.60;;;;;;;-146.25;100.00;52512.16;2067811;28;40184;-73
2023/01/21 02:52:32;;;;;;;53.38;23.70;;;;;;;-146.25;100.00;52510.13;2070770;28;42262;-71
2023/01/21 02:53:35;;;;;;;57.10;23.88;;;;;;;-146.25;100.00;52508.09;2071588;28;38590;-73
2023/01/21 02:54:39;;;;;;;55.83;23.98;;;;;;;-146.25;100.00;52554.75;2072143;28;38449;-71
2023/01/21 02:55:41;;;;;;;61.50;24.95;;;;;;;-146.25;100.00;52475.66;2071649;28;40991;-72
2023/01/21 02:56:46;;;;;;;60.15;25.95;;;;;;;-146.25;100.00;52485.81;2078030;28;36553;-73
2023/01/21 02:57:54;;;;;;;66.78;27.42;;;;;;;-146.25;100.00;52497.97;2079496;28;39413;-71
2023/01/21 02:59:02;;;;;;;60.50;26.08;;;;;;;-146.25;100.00;52510.13;2071242;28;41110;-71
2023/01/21 03:00:15;;;;;;;70.50;27.42;;;;;;;-146.25;100.00;52518.25;2073574;28;37899;-71
2023/01/21 03:02:17;;;;;;;65.57;26.52;;;;;;;-146.25;100.00;52508.09;2071100;28;37810;-73
2023/01/21 03:04:06;;;;;;;52.08;23.33;;;;;;;-146.25;100.00;52530.41;2080104;28;36177;-73
2023/01/21 03:06:12;;;;;;;54.20;22.42;;;;;;;-146.25;100.00;52487.81;2079888;28;37341;-73
2023/01/21 03:07:34;;;;;;;51.38;22.73;;;;;;;-146.25;100.00;52506.06;2077836;28;35606;-72
2023/01/21 03:09:00;;;;;;;52.50;22.90;;;;;;;-146.25;100.00;52483.78;2070938;28;38945;-71
2023/01/21 03:10:38;;;;;;;63.85;25.27;;;;;;;-146.25;100.00;52475.66;2074998;28;30004;-71
2023/01/21 03:11:46;;;;;;;47.47;22.63;;;;;;;-146.25;100.00;52485.81;2063853;28;41589;-73
2023/01/21 03:16:55;;;;;;;53.67;22.83;;;;;;;-146.25;100.00;52514.19;2070629;28;40741;-71
2023/01/21 03:17:51;;;;;;;59.03;25.40;;;;;;;-146.25;100.00;52524.31;2070870;28;43384;-73
2023/01/21 03:18:56;;;;;;;50.33;21.88;;;;;;;-146.25;100.00;52487.81;2077454;28;20117;-73
2023/01/21 03:20:17;;;;;;;63.08;26.27;;;;;;;-146.25;100.00;52514.19;2078818;28;35786;-73
2023/01/21 03:21:29;;;;;;;44.38;19.48;;;;;;;-146.25;100.00;52524.31;2079277;28;40916;-73
2023/01/21 03:22:34;;;;;;;59.63;25.70;;;;;;;-146.25;100.00;52504.03;2071118;28;38088;-73
2023/01/21 03:23:42;;;;;;;65.43;26.23;;;;;;;-146.25;100.00;52522.28;2073173;28;20035;-73
2023/01/21 03:24:49;;;;;;;56.47;24.73;;;;;;;-146.25;100.00;52518.25;2080027;28;37966;-72
2023/01/21 03:25:54;;;;;;;53.90;24.20;;;;;;;-146.25;100.00;52524.31;2070681;28;43179;-72
2023/01/21 03:27:00;;;;;;;52.60;23.73;;;;;;;-146.25;100.00;52500.00;2071819;28;41358;-72
2023/01/21 03:28:10;;;;;;;56.08;23.38;;;;;;;-146.25;100.00;52493.91;2070519;28;41691;-73
2023/01/21 03:29:23;;;;;;;52.83;24.15;;;;;;;-146.25;100.00;52493.91;2072688;28;38446;-71
2023/01/21 03:30:27;;;;;;;57.03;24.45;;;;;;;-146.25;100.00;52493.91;2071063;28;38991;-71
2023/01/21 03:31:33;;;;;;;48.58;22.35;;;;;;;-146.25;100.00;52493.91;2072532;28;40031;-73
2023/01/21 03:32:37;;;;;;;54.05;22.98;;;;;;;-146.25;100.00;52510.13;2063676;28;20043;-73
2023/01/21 03:33:44;;;;;;;60.90;25.77;;;;;;;-146.25;100.00;52528.38;2064046;28;39686;-73
2023/01/21 03:34:53;;;;;;;60.78;26.75;;;;;;;-146.25;100.00;52508.09;2070974;28;38132;-73
2023/01/21 03:36:00;;;;;;;56.65;24.10;;;;;;;-146.25;100.00;52504.03;2071107;28;41685;-71
2023/01/21 03:37:12;;;;;;;65.22;26.95;;;;;;;-146.25;100.00;52540.53;2073143;28;22739;-71
2023/01/21 03:38:21;;;;;;;56.10;24.95;;;;;;;-146.25;100.00;52477.69;2078786;28;40240;-72
2023/01/21 03:39:38;;;;;;;62.10;26.23;;;;;;;-146.25;100.00;52479.72;2079255;28;39374;-72
2023/01/21 03:40:49;;;;;;;62.65;25.42;;;;;;;-146.25;100.00;52540.53;2071374;28;20165;-73
2023/01/21 03:41:50;;;;;;;;;;;;;;;-146.25;100.00;52520.28;2072185;28;41429;-70
2023/01/21 03:42:55;;;;;;;59.10;25.05;;;;;;;-146.25;100.00;52532.44;2078751;28;39140;-70
2023/01/21 03:43:57;;;;;;;64.05;26.63;;;;;;;-146.25;100.00;52546.63;2078986;28;38503;-72
2023/01/21 03:44:59;;;;;;;57.17;24.15;;;;;;;-146.25;100.00;52471.59;2061916;28;42931;-73
2023/01/21 03:46:10;;;;;;;54.83;22.67;;;;;;;-146.25;100.00;52524.31;2054866;28;36969;-71
2023/01/21 03:47:30;;;;;;;46.75;20.05;;;;;;;-146.25;100.00;52518.25;2071983;28;42356;-71
2023/01/21 03:49:03;;;;;;;65.57;26.02;;;;;;;-146.25;100.00;52512.16;2079850;28;21481;-71
2023/01/21 03:50:24;;;;;;;58.53;25.40;;;;;;;-146.25;100.00;52493.91;2079208;28;37023;-71
2023/01/21 03:51:37;;;;;;;55.55;23.98;;;;;;;-146.25;100.00;52536.50;2070835;28;41128;-71
2023/01/21 03:52:41;;;;;;;50.67;21.35;;;;;;;-146.25;100.00;52508.09;2074679;28;39774;-71
2023/01/21 03:53:44;;;;;;;63.78;27.58;;;;;;;-146.25;100.00;52467.56;2070102;28;42557;-71
2023/01/21 03:54:46;;;;;;;63.85;27.13;;;;;;;-146.25;100.00;52514.19;2071101;28;38554;-71
2023/01/21 03:55:50;;;;;;;57.03;24.40;;;;;;;-146.25;100.00;52512.16;2070773;28;38648;-71
2023/01/21 03:56:52;;;;;;;61.00;26.35;;;;;;;-146.25;100.00;52495.94;2070699;28;43170;-71
2023/01/21 03:57:53;;;;;;;52.75;24.52;;;;;;;-146.25;100.00;52510.13;2070573;28;38268;-71
2023/01/21 03:58:55;;;;;;;56.17;25.27;;;;;;;-146.25;100.00;52532.44;2071006;28;43430;-72
2023/01/21 03:59:57;;;;;;;53.72;23.98;;;;;;;-146.25;100.00;52534.47;2070675;28;39480;-71
2023/01/21 04:00:59;;;;;;;58.33;23.80;;;;;;;-146.25;100.00;52477.69;2070594;28;37397;-71
2023/01/21 04:02:00;;;;;;;52.13;23.60;;;;;;;-146.25;100.00;52510.13;2080041;28;20042;-71
2023/01/21 04:03:02;;;;;;;55.15;25.10;;;;;;;-146.25;100.00;52493.91;2079442;28;36672;-71
2023/01/21 04:04:05;;;;;;;60.05;24.80;;;;;;;-146.25;100.00;52512.16;2078865;28;39656;-71
2023/01/21 04:05:07;;;;;;;58.50;25.52;;;;;;;-146.25;100.00;52506.06;2070745;28;40005;-71
2023/01/21 04:06:18;;;;;;;57.30;25.15;;;;;;;-146.25;100.00;52485.81;2063496;28;20050;-71
2023/01/21 04:07:20;;;;;;;59.13;25.92;;;;;;;-146.25;100.00;52497.97;2072097;28;40285;-71
2023/01/21 04:08:22;;;;;;;51.38;22.85;;;;;;;-146.25;100.00;52502.03;2079824;28;32429;-73
2023/01/21 04:09:25;;;;;;;56.15;23.75;;;;;;;-146.25;100.00;52481.75;2078443;28;39869;-71
2023/01/21 04:10:28;;;;;;;59.92;25.10;;;;;;;-146.25;100.00;52487.81;2079522;28;24436;-71
2023/01/21 04:11:33;;;;;;;63.10;25.83;;;;;;;-146.25;100.00;52506.06;2079795;28;39426;-72
2023/01/21 04:12:34;;;;;;;54.58;23.92;;;;;;;-146.25;100.00;52473.63;2079008;28;42226;-71
2023/01/21 04:13:39;;;;;;;52.58;23.88;;;;;;;-146.25;100.00;52485.81;2070625;28;37782;-71
2023/01/21 04:14:41;;;;;;;54.33;24.83;;;;;;;-146.25;100.00;52530.41;2062981;28;39816;-73
2023/01/21 04:15:42;;;;;;;57.50;24.70;;;;;;;-146.25;100.00;52485.81;2070289;28;38945;-71
2023/01/21 04:16:44;;;;;;;56.13;24.17;;;;;;;-146.25;100.00;52510.13;2079761;28;35144;-71
2023/01/21 04:17:46;;;;;;;51.15;22.80;;;;;;;-146.25;100.00;52500.00;2079474;28;41519;-72
2023/01/21 04:18:47;;;;;;;52.58;23.40;;;;;;;-146.25;100.00;52522.28;2070798;28;40063;-73
2023/01/21 04:19:49;;;;;;;53.85;23.65;;;;;;;-146.25;100.00;52534.47;2071964;28;21075;-73
2023/01/21 04:20:51;;;;;;;57.00;24.95;;;;;;;-146.25;100.00;52489.84;2079575;28;38028;-73
2023/01/21 04:21:53;;;;;;;54.35;24.40;;;;;;;-146.25;100.00;52497.97;2078690;28;38862;-72
2023/01/21 04:22:54;;;;;;;48.88;22.73;;;;;;;-146.25;100.00;52481.75;2071573;28;21113;-72
2023/01/21 04:23:56;;;;;;;44.80;21.60;;;;;;;-146.25;100.00;52534.47;2070614;28;38745;-72
2023/01/21 04:24:58;;;;;;;50.80;23.00;;;;;;;-146.25;100.00;52510.13;2079406;28;41661;-71
2023/01/21 04:26:00;;;;;;;45.78;21.65;;;;;;;-146.25;100.00;52530.41;2080209;28;20084;-72
2023/01/21 04:27:01;;;;;;;40.30;20.55;;;;;;;-146.25;100.00;52526.34;2079405;28;42218;-73
2023/01/21 04:28:03;;;;;;;50.60;22.02;;;;;;;-146.25;100.00;52485.81;2078850;28;39044;-72
2023/01/21 04:29:05;;;;;;;42.70;19.92;;;;;;;-146.25;100.00;52534.47;2079929;28;29053;-73
2023/01/21 04:30:10;;;;;;;45.97;21.63;;;;;;;-146.25;100.00;52518.25;2080149;28;20037;-73
2023/01/21 04:31:11;;;;;;;48.35;22.95;;;;;;;-146.25;100.00;52506.06;2079212;28;40351;-73
2023/01/21 04:32:15;;;;;;;47.75;22.27;;;;;;;-146.25;100.00;52497.97;2078955;28;38942;-73
2023/01/21 04:33:17;;;;;;;45.58;22.08;;;;;;;-146.25;100.00;52520.28;2078946;28;38878;-73
2023/01/21 04:34:19;;;;;;;50.83;23.15;;;;;;;-146.25;100.00;52489.84;2079528;28;39508;-73
2023/01/21 04:35:20;;;;;;;42.90;20.70;;;;;;;-146.25;100.00;52520.28;2080723;28;20807;-72
2023/01/21 04:36:22;;;;;;;44.50;21.67;;;;;;;-146.25;100.00;52518.25;2080822;28;40805;-72
2023/01/21 04:37:26;;;;;;;37.35;18.92;;;;;;;-146.25;100.00;52522.28;2080942;28;36073;-73
2023/01/21 04:38:29;;;;;;;43.40;20.00;;;;;;;-146.25;100.00;52502.03;2080149;28;26521;-73
2023/01/21 04:39:31;;;;;;;38.20;18.30;;;;;;;-146.25;100.00;52514.19;2071671;28;37719;-73
2023/01/21 04:40:33;;;;;;;42.95;21.00;;;;;;;-146.25;100.00;52512.16;2072291;28;35969;-73
2023/01/21 04:41:34;;;;;;;39.85;19.75;;;;;;;-146.25;100.00;52495.94;2080860;28;38809;-72
2023/01/21 04:42:41;;;;;;;49.90;23.48;;;;;;;-146.25;100.00;52532.44;2080441;28;37338;-73
2023/01/21 04:43:42;;;;;;;41.60;20.00;;;;;;;-146.25;100.00;52514.19;2081527;28;20050;-73
2023/01/21 04:44:44;;;;;;;46.25;21.40;;;;;;;-146.25;100.00;52500.00;2080798;28;39870;-72
2023/01/21 04:45:46;;;;;;;38.20;18.70;;;;;;;-146.25;100.00;52489.84;2080756;28;39649;-70
2023/01/21 04:46:48;;;;;;;44.25;21.35;;;;;;;-146.25;100.00;52506.06;2071544;28;38749;-71
2023/01/21 04:47:49;;;;;;;47.72;21.05;;;;;;;-146.25;100.00;52475.66;2072272;28;36692;-71
2023/01/21 04:48:51;;;;;;;39.70;18.90;;;;;;;-146.25;100.00;52504.03;2080664;28;37485;-73
2023/01/21 04:49:53;;;;;;;50.25;23.88;;;;;;;-146.25;100.00;52495.94;2071842;28;37499;-72
2023/01/21 04:50:54;;;;;;;47.95;22.75;;;;;;;-146.25;100.00;52510.13;2072069;28;39774;-71
2023/01/21 04:51:56;;;;;;;47.25;22.67;;;;;;;-146.25;100.00;52542.56;2080113;28;35705;-71
2023/01/21 04:52:58;;;;;;;44.30;20.70;;;;;;;-146.25;100.00;52518.25;2080157;28;38485;-71
2023/01/21 04:54:02;;;;;;;43.58;20.33;;;;;;;-146.25;100.00;52508.09;2081518;28;20030;-73
2023/01/21 04:55:08;;;;;;;39.42;17.98;;;;;;;-146.25;100.00;52518.25;2072576;28;20930;-71
2023/01/21 04:56:12;;;;;;;41.78;19.23;;;;;;;-146.25;100.00;52510.13;2073172;28;39025;-72
2023/01/21 04:57:14;;;;;;;45.25;21.48;;;;;;;-146.25;100.00;52510.13;2080907;28;34504;-71
2023/01/21 04:58:16;;;;;;;48.95;22.77;;;;;;;-146.25;100.00;52516.22;2081102;28;21804;-71
2023/01/21 04:59:18;;;;;;;41.50;20.05;;;;;;;-146.25;100.00;52497.97;2080230;28;40097;-71
2023/01/21 05:00:20;;;;;;;47.97;21.65;;;;;;;-146.25;100.00;52512.16;2080667;28;38985;-71
2023/01/21 05:01:22;;;;;;;43.17;20.45;;;;;;;-146.25;100.00;52485.81;2080462;28;31156;-71
2023/01/21 05:02:24;;;;;;;39.15;19.42;;;;;;;-146.25;100.00;52491.88;2080968;28;36243;-71
2023/01/21 05:03:26;;;;;;;48.15;22.55;;;;;;;-146.25;100.00;52473.63;2080714;28;38234;-71
2023/01/21 05:04:29;;;;;;;48.42;22.02;;;;;;;-146.25;100.00;52526.34;2081480;28;20038;-71